sensor_id;sensor_type;location;lat;lon;timestamp;P1;durP1;ratioP1;P2;durP2;ratioP2
37169;SDS011;23062;13.952;100.608;2023-08-20T00:03:10;2052.00;;;1544.00;;
37169;SDS011;23062;13.952;100.608;2023-08-20T00:07:33;2369.00;;;1680.93;;
37169;SDS011;23062;13.952;100.608;2023-08-20T00:12:03;394.00;;;313.00;;
37169;SDS011;23062;13.952;100.608;2023-08-20T00:16:31;1099.00;;;817.00;;
37169;SDS011;23062;13.952;100.608;2023-08-20T00:21:00;921.00;;;709.00;;
37169;SDS011;23062;13.952;100.608;2023-08-20T00:25:29;1115.00;;;857.00;;
37169;SDS011;23062;13.952;100.608;2023-08-20T00:29:57;410.00;;;316.00;;
37169;SDS011;23062;13.952;100.608;2023-08-20T00:34:24;1860.00;;;1421.00;;
37169;SDS011;23062;13.952;100.608;2023-08-20T00:38:56;174.00;;;132.00;;
37169;SDS011;23062;13.952;100.608;2023-08-20T00:43:30;488.00;;;369.00;;
37169;SDS011;23062;13.952;100.608;2023-08-20T00:47:56;1034.00;;;816.00;;
37169;SDS011;23062;13.952;100.608;2023-08-20T00:52:30;1577.00;;;1221.00;;
37169;SDS011;23062;13.952;100.608;2023-08-20T00:56:57;1921.00;;;1471.00;;
37169;SDS011;23062;13.952;100.608;2023-08-20T01:01:26;1075.00;;;833.00;;
37169;SDS011;23062;13.952;100.608;2023-08-20T01:05:53;2311.00;;;1795.00;;
37169;SDS011;23062;13.952;100.608;2023-08-20T01:10:40;1540.00;;;1196.00;;
37169;SDS011;23062;13.952;100.608;2023-08-20T01:15:20;15.00;;;11.00;;
37169;SDS011;23062;13.952;100.608;2023-08-20T01:19:52;16.00;;;11.00;;
37169;SDS011;23062;13.952;100.608;2023-08-20T01:24:36;11.00;;;8.00;;
37169;SDS011;23062;13.952;100.608;2023-08-20T01:29:19;1673.00;;;1278.00;;
37169;SDS011;23062;13.952;100.608;2023-08-20T01:33:45;1692.00;;;1300.00;;
37169;SDS011;23062;13.952;100.608;2023-08-20T01:38:22;2408.00;;;1918.00;;
37169;SDS011;23062;13.952;100.608;2023-08-20T01:42:50;2416.00;;;1845.00;;
37169;SDS011;23062;13.952;100.608;2023-08-20T01:47:22;2345.00;;;1858.00;;
37169;SDS011;23062;13.952;100.608;2023-08-20T01:51:48;2388.00;;;1892.00;;
37169;SDS011;23062;13.952;100.608;2023-08-20T01:56:17;2537.00;;;1911.00;;
37169;SDS011;23062;13.952;100.608;2023-08-20T02:00:45;1094.00;;;818.00;;
37169;SDS011;23062;13.952;100.608;2023-08-20T02:05:14;1647.00;;;1252.00;;
37169;SDS011;23062;13.952;100.608;2023-08-20T02:09:40;2356.00;;;1853.00;;
37169;SDS011;23062;13.952;100.608;2023-08-20T02:14:11;2341.00;;;1865.00;;
37169;SDS011;23062;13.952;100.608;2023-08-20T02:18:38;2510.00;;;1868.00;;
37169;SDS011;23062;13.952;100.608;2023-08-20T02:23:09;1769.00;;;1419.00;;
37169;SDS011;23062;13.952;100.608;2023-08-20T02:27:37;404.00;;;308.00;;
37169;SDS011;23062;13.952;100.608;2023-08-20T02:32:04;1283.00;;;1000.00;;
37169;SDS011;23062;13.952;100.608;2023-08-20T02:36:32;1393.00;;;1066.00;;
37169;SDS011;23062;13.952;100.608;2023-08-20T02:41:02;1635.00;;;1290.00;;
37169;SDS011;23062;13.952;100.608;2023-08-20T02:45:41;2230.00;;;1678.00;;
37169;SDS011;23062;13.952;100.608;2023-08-20T02:50:10;2402.00;;;1830.00;;
37169;SDS011;23062;13.952;100.608;2023-08-20T02:54:41;2473.00;;;1871.00;;
37169;SDS011;23062;13.952;100.608;2023-08-20T02:59:12;2391.00;;;1896.00;;
37169;SDS011;23062;13.952;100.608;2023-08-20T03:03:45;2428.00;;;1893.00;;
37169;SDS011;23062;13.952;100.608;2023-08-20T03:08:13;2019.00;;;1525.00;;
37169;SDS011;23062;13.952;100.608;2023-08-20T03:12:42;1063.00;;;848.00;;
37169;SDS011;23062;13.952;100.608;2023-08-20T03:17:10;2462.00;;;1944.00;;
37169;SDS011;23062;13.952;100.608;2023-08-20T03:21:37;2503.00;;;1931.00;;
37169;SDS011;23062;13.952;100.608;2023-08-20T03:26:08;2248.00;;;1804.00;;
37169;SDS011;23062;13.952;100.608;2023-08-20T03:30:42;1685.00;;;1260.00;;
37169;SDS011;23062;13.952;100.608;2023-08-20T03:35:10;2296.00;;;1829.00;;
37169;SDS011;23062;13.952;100.608;2023-08-20T03:39:38;1733.00;;;1377.00;;
37169;SDS011;23062;13.952;100.608;2023-08-20T03:44:09;2609.00;;;1961.00;;
37169;SDS011;23062;13.952;100.608;2023-08-20T03:48:43;2465.00;;;1945.00;;
37169;SDS011;23062;13.952;100.608;2023-08-20T03:53:13;1248.00;;;954.00;;
37169;SDS011;23062;13.952;100.608;2023-08-20T03:57:44;2524.00;;;1932.00;;
37169;SDS011;23062;13.952;100.608;2023-08-20T04:02:16;2493.00;;;1952.00;;
37169;SDS011;23062;13.952;100.608;2023-08-20T04:06:43;19.00;;;15.00;;
37169;SDS011;23062;13.952;100.608;2023-08-20T04:11:11;22.00;;;14.93;;
37169;SDS011;23062;13.952;100.608;2023-08-20T04:15:44;16.00;;;12.00;;
37169;SDS011;23062;13.952;100.608;2023-08-20T04:20:14;17.00;;;12.00;;
37169;SDS011;23062;13.952;100.608;2023-08-20T04:24:41;18.00;;;14.00;;
37169;SDS011;23062;13.952;100.608;2023-08-20T04:29:09;16.00;;;12.00;;
37169;SDS011;23062;13.952;100.608;2023-08-20T04:33:35;14.00;;;11.00;;
37169;SDS011;23062;13.952;100.608;2023-08-20T04:38:04;15.00;;;11.00;;
37169;SDS011;23062;13.952;100.608;2023-08-20T04:42:35;17.00;;;12.00;;
37169;SDS011;23062;13.952;100.608;2023-08-20T04:47:02;16.00;;;11.00;;
37169;SDS011;23062;13.952;100.608;2023-08-20T04:51:37;14.00;;;10.00;;
37169;SDS011;23062;13.952;100.608;2023-08-20T04:56:11;13.00;;;9.00;;
37169;SDS011;23062;13.952;100.608;2023-08-20T05:00:38;14.00;;;10.00;;
37169;SDS011;23062;13.952;100.608;2023-08-20T05:05:06;14.00;;;10.00;;
37169;SDS011;23062;13.952;100.608;2023-08-20T05:09:32;12.00;;;9.00;;
37169;SDS011;23062;13.952;100.608;2023-08-20T05:14:05;16.00;;;11.00;;
37169;SDS011;23062;13.952;100.608;2023-08-20T05:18:40;13.00;;;10.00;;
37169;SDS011;23062;13.952;100.608;2023-08-20T05:23:08;13.00;;;10.00;;
37169;SDS011;23062;13.952;100.608;2023-08-20T05:27:45;15.00;;;10.00;;
37169;SDS011;23062;13.952;100.608;2023-08-20T05:32:14;14.00;;;10.00;;
37169;SDS011;23062;13.952;100.608;2023-08-20T05:36:42;14.00;;;11.00;;
37169;SDS011;23062;13.952;100.608;2023-08-20T05:41:09;163.00;;;112.93;;
37169;SDS011;23062;13.952;100.608;2023-08-20T05:45:48;17.00;;;13.00;;
37169;SDS011;23062;13.952;100.608;2023-08-20T05:50:19;16.00;;;11.00;;
37169;SDS011;23062;13.952;100.608;2023-08-20T05:54:49;15.00;;;11.00;;
37169;SDS011;23062;13.952;100.608;2023-08-20T05:59:17;15.00;;;11.00;;
37169;SDS011;23062;13.952;100.608;2023-08-20T06:03:50;14.00;;;10.00;;
37169;SDS011;23062;13.952;100.608;2023-08-20T06:08:19;13.00;;;10.00;;
37169;SDS011;23062;13.952;100.608;2023-08-20T06:12:48;13.00;;;9.00;;
37169;SDS011;23062;13.952;100.608;2023-08-20T06:17:24;16.00;;;12.00;;
37169;SDS011;23062;13.952;100.608;2023-08-20T06:21:52;16.00;;;12.00;;
37169;SDS011;23062;13.952;100.608;2023-08-20T06:26:25;17.00;;;13.00;;
37169;SDS011;23062;13.952;100.608;2023-08-20T06:30:52;16.00;;;11.00;;
37169;SDS011;23062;13.952;100.608;2023-08-20T06:35:19;14.00;;;10.00;;
37169;SDS011;23062;13.952;100.608;2023-08-20T06:39:47;16.00;;;11.00;;
37169;SDS011;23062;13.952;100.608;2023-08-20T06:44:25;13.00;;;9.00;;
37169;SDS011;23062;13.952;100.608;2023-08-20T06:48:59;12.00;;;9.00;;
37169;SDS011;23062;13.952;100.608;2023-08-20T06:53:27;15.00;;;11.00;;
37169;SDS011;23062;13.952;100.608;2023-08-20T06:57:55;14.00;;;10.00;;
37169;SDS011;23062;13.952;100.608;2023-08-20T07:02:23;15.00;;;11.00;;
37169;SDS011;23062;13.952;100.608;2023-08-20T07:06:52;13.00;;;9.00;;
37169;SDS011;23062;13.952;100.608;2023-08-20T07:11:23;13.00;;;10.00;;
37169;SDS011;23062;13.952;100.608;2023-08-20T07:15:52;16.00;;;11.00;;
37169;SDS011;23062;13.952;100.608;2023-08-20T07:20:29;14.00;;;10.00;;
37169;SDS011;23062;13.952;100.608;2023-08-20T07:24:59;17.00;;;13.00;;
37169;SDS011;23062;13.952;100.608;2023-08-20T07:29:27;18.00;;;13.00;;
37169;SDS011;23062;13.952;100.608;2023-08-20T07:34:00;25.00;;;17.73;;
37169;SDS011;23062;13.952;100.608;2023-08-20T07:38:36;18.00;;;13.00;;
37169;SDS011;23062;13.952;100.608;2023-08-20T07:43:14;18.00;;;13.00;;
37169;SDS011;23062;13.952;100.608;2023-08-20T07:47:42;16.00;;;12.00;;
37169;SDS011;23062;13.952;100.608;2023-08-20T07:52:45;17.00;;;13.00;;
37169;SDS011;23062;13.952;100.608;2023-08-20T07:56:56;17.00;;;13.00;;
37169;SDS011;23062;13.952;100.608;2023-08-20T08:01:36;19.00;;;13.00;;
37169;SDS011;23062;13.952;100.608;2023-08-20T08:06:04;15.00;;;11.00;;
37169;SDS011;23062;13.952;100.608;2023-08-20T08:10:38;13.00;;;10.00;;
37169;SDS011;23062;13.952;100.608;2023-08-20T08:15:15;19.00;;;14.00;;
37169;SDS011;23062;13.952;100.608;2023-08-20T08:19:44;20.00;;;14.00;;
37169;SDS011;23062;13.952;100.608;2023-08-20T08:24:13;21.00;;;15.00;;
37169;SDS011;23062;13.952;100.608;2023-08-20T08:28:43;19.00;;;13.00;;
37169;SDS011;23062;13.952;100.608;2023-08-20T08:33:14;20.00;;;14.00;;
37169;SDS011;23062;13.952;100.608;2023-08-20T08:37:42;20.00;;;15.00;;
37169;SDS011;23062;13.952;100.608;2023-08-20T08:42:24;26.00;;;19.00;;
37169;SDS011;23062;13.952;100.608;2023-08-20T08:46:55;29.00;;;22.00;;
37169;SDS011;23062;13.952;100.608;2023-08-20T08:51:23;29.00;;;21.00;;
37169;SDS011;23062;13.952;100.608;2023-08-20T08:56:03;23.00;;;17.00;;
37169;SDS011;23062;13.952;100.608;2023-08-20T09:00:32;23.00;;;17.00;;
37169;SDS011;23062;13.952;100.608;2023-08-20T09:04:59;21.00;;;16.00;;
37169;SDS011;23062;13.952;100.608;2023-08-20T09:09:29;22.00;;;16.00;;
37169;SDS011;23062;13.952;100.608;2023-08-20T09:13:57;21.00;;;15.00;;
37169;SDS011;23062;13.952;100.608;2023-08-20T09:18:26;22.00;;;17.00;;
37169;SDS011;23062;13.952;100.608;2023-08-20T09:22:53;22.00;;;17.00;;
37169;SDS011;23062;13.952;100.608;2023-08-20T09:27:22;21.00;;;15.00;;
37169;SDS011;23062;13.952;100.608;2023-08-20T09:31:51;13.00;;;10.00;;
37169;SDS011;23062;13.952;100.608;2023-08-20T09:36:31;12.00;;;8.00;;
37169;SDS011;23062;13.952;100.608;2023-08-20T09:41:00;11.00;;;8.00;;
37169;SDS011;23062;13.952;100.608;2023-08-20T09:45:30;10.00;;;7.00;;
37169;SDS011;23062;13.952;100.608;2023-08-20T09:50:03;9.00;;;6.00;;
37169;SDS011;23062;13.952;100.608;2023-08-20T09:59:28;7.00;;;5.00;;
37169;SDS011;23062;13.952;100.608;2023-08-20T10:03:57;6.00;;;4.00;;
37169;SDS011;23062;13.952;100.608;2023-08-20T10:08:33;8.00;;;5.00;;
37169;SDS011;23062;13.952;100.608;2023-08-20T10:13:33;11.00;;;8.00;;
37169;SDS011;23062;13.952;100.608;2023-08-20T10:18:19;10.00;;;7.00;;
37169;SDS011;23062;13.952;100.608;2023-08-20T10:22:46;10.00;;;7.00;;
37169;SDS011;23062;13.952;100.608;2023-08-20T10:27:23;9.00;;;6.00;;
37169;SDS011;23062;13.952;100.608;2023-08-20T10:31:53;10.00;;;7.00;;
37169;SDS011;23062;13.952;100.608;2023-08-20T10:36:21;10.00;;;7.00;;
37169;SDS011;23062;13.952;100.608;2023-08-20T10:40:54;12.00;;;9.00;;
37169;SDS011;23062;13.952;100.608;2023-08-20T10:45:29;13.00;;;9.00;;
37169;SDS011;23062;13.952;100.608;2023-08-20T10:49:58;14.00;;;11.00;;
37169;SDS011;23062;13.952;100.608;2023-08-20T10:54:26;14.00;;;10.00;;
37169;SDS011;23062;13.952;100.608;2023-08-20T10:59:05;13.00;;;9.00;;
37169;SDS011;23062;13.952;100.608;2023-08-20T11:03:51;14.00;;;10.00;;
37169;SDS011;23062;13.952;100.608;2023-08-20T11:08:19;13.00;;;9.00;;
37169;SDS011;23062;13.952;100.608;2023-08-20T11:12:49;13.00;;;10.00;;
37169;SDS011;23062;13.952;100.608;2023-08-20T11:17:17;11.00;;;8.00;;
37169;SDS011;23062;13.952;100.608;2023-08-20T11:21:46;9.00;;;6.00;;
37169;SDS011;23062;13.952;100.608;2023-08-20T11:30:53;5.00;;;3.00;;
37169;SDS011;23062;13.952;100.608;2023-08-20T11:35:28;5.00;;;3.00;;
37169;SDS011;23062;13.952;100.608;2023-08-20T11:44:55;6.00;;;4.00;;
37169;SDS011;23062;13.952;100.608;2023-08-20T11:49:27;6.00;;;4.00;;
37169;SDS011;23062;13.952;100.608;2023-08-20T11:53:57;4.00;;;3.00;;
37169;SDS011;23062;13.952;100.608;2023-08-20T11:58:25;6.00;;;4.00;;
37169;SDS011;23062;13.952;100.608;2023-08-20T12:03:01;4.00;;;3.00;;
37169;SDS011;23062;13.952;100.608;2023-08-20T12:07:29;5.00;;;3.00;;
37169;SDS011;23062;13.952;100.608;2023-08-20T12:12:07;3.00;;;2.00;;
37169;SDS011;23062;13.952;100.608;2023-08-20T12:16:56;4.00;;;2.00;;
37169;SDS011;23062;13.952;100.608;2023-08-20T12:21:27;6.00;;;4.00;;
37169;SDS011;23062;13.952;100.608;2023-08-20T12:25:54;5.00;;;3.00;;
37169;SDS011;23062;13.952;100.608;2023-08-20T12:30:35;5.00;;;3.00;;
37169;SDS011;23062;13.952;100.608;2023-08-20T12:35:09;5.00;;;3.00;;
37169;SDS011;23062;13.952;100.608;2023-08-20T12:39:40;6.00;;;4.00;;
37169;SDS011;23062;13.952;100.608;2023-08-20T12:44:13;6.00;;;4.00;;
37169;SDS011;23062;13.952;100.608;2023-08-20T12:48:50;8.00;;;6.00;;
37169;SDS011;23062;13.952;100.608;2023-08-20T12:53:22;8.00;;;5.00;;
37169;SDS011;23062;13.952;100.608;2023-08-20T12:57:55;7.00;;;5.00;;
37169;SDS011;23062;13.952;100.608;2023-08-20T13:02:24;10.00;;;7.00;;
37169;SDS011;23062;13.952;100.608;2023-08-20T13:07:02;9.00;;;7.00;;
37169;SDS011;23062;13.952;100.608;2023-08-20T13:11:35;10.00;;;7.00;;
37169;SDS011;23062;13.952;100.608;2023-08-20T13:16:05;13.00;;;9.00;;
37169;SDS011;23062;13.952;100.608;2023-08-20T13:20:36;9.00;;;6.00;;
37169;SDS011;23062;13.952;100.608;2023-08-20T13:25:09;13.00;;;9.00;;
37169;SDS011;23062;13.952;100.608;2023-08-20T13:29:44;8.00;;;5.00;;
37169;SDS011;23062;13.952;100.608;2023-08-20T13:34:14;9.00;;;6.00;;
37169;SDS011;23062;13.952;100.608;2023-08-20T13:38:53;8.00;;;5.00;;
37169;SDS011;23062;13.952;100.608;2023-08-20T13:43:26;6.00;;;4.00;;
37169;SDS011;23062;13.952;100.608;2023-08-20T13:47:57;9.00;;;6.00;;
37169;SDS011;23062;13.952;100.608;2023-08-20T13:52:28;7.00;;;5.00;;
37169;SDS011;23062;13.952;100.608;2023-08-20T13:56:58;6.00;;;4.00;;
37169;SDS011;23062;13.952;100.608;2023-08-20T14:01:29;651.00;;;474.13;;
37169;SDS011;23062;13.952;100.608;2023-08-20T14:06:03;8.00;;;5.00;;
37169;SDS011;23062;13.952;100.608;2023-08-20T14:10:35;7.00;;;5.00;;
37169;SDS011;23062;13.952;100.608;2023-08-20T14:15:12;8.00;;;5.00;;
37169;SDS011;23062;13.952;100.608;2023-08-20T14:19:48;9.00;;;6.00;;
37169;SDS011;23062;13.952;100.608;2023-08-20T14:24:16;7.00;;;5.00;;
37169;SDS011;23062;13.952;100.608;2023-08-20T14:28:45;9.00;;;6.00;;
37169;SDS011;23062;13.952;100.608;2023-08-20T14:33:15;8.00;;;5.00;;
37169;SDS011;23062;13.952;100.608;2023-08-20T14:37:52;7.00;;;5.00;;
37169;SDS011;23062;13.952;100.608;2023-08-20T14:42:23;212.00;;;151.20;;
37169;SDS011;23062;13.952;100.608;2023-08-20T14:46:58;9.00;;;6.00;;
37169;SDS011;23062;13.952;100.608;2023-08-20T14:51:29;11.00;;;8.00;;
37169;SDS011;23062;13.952;100.608;2023-08-20T14:56:00;11.00;;;7.00;;
37169;SDS011;23062;13.952;100.608;2023-08-20T15:00:29;9.00;;;7.00;;
37169;SDS011;23062;13.952;100.608;2023-08-20T15:05:02;8.00;;;5.00;;
37169;SDS011;23062;13.952;100.608;2023-08-20T15:09:37;8.00;;;6.00;;
37169;SDS011;23062;13.952;100.608;2023-08-20T15:14:12;8.00;;;6.00;;
37169;SDS011;23062;13.952;100.608;2023-08-20T15:18:42;6.00;;;4.00;;
37169;SDS011;23062;13.952;100.608;2023-08-20T15:23:12;9.00;;;6.00;;
37169;SDS011;23062;13.952;100.608;2023-08-20T15:27:43;9.00;;;6.00;;
37169;SDS011;23062;13.952;100.608;2023-08-20T15:32:16;8.00;;;5.00;;
37169;SDS011;23062;13.952;100.608;2023-08-20T15:36:51;6.00;;;4.00;;
37169;SDS011;23062;13.952;100.608;2023-08-20T15:41:34;6.00;;;4.00;;
37169;SDS011;23062;13.952;100.608;2023-08-20T15:46:04;9.00;;;6.00;;
37169;SDS011;23062;13.952;100.608;2023-08-20T15:50:32;8.00;;;6.00;;
37169;SDS011;23062;13.952;100.608;2023-08-20T15:55:02;8.00;;;6.00;;
37169;SDS011;23062;13.952;100.608;2023-08-20T15:59:41;6.00;;;4.00;;
37169;SDS011;23062;13.952;100.608;2023-08-20T16:04:07;6.00;;;4.00;;
37169;SDS011;23062;13.952;100.608;2023-08-20T16:08:42;6.00;;;4.00;;
37169;SDS011;23062;13.952;100.608;2023-08-20T16:13:11;7.00;;;5.00;;
37169;SDS011;23062;13.952;100.608;2023-08-20T16:17:45;6.00;;;4.00;;
37169;SDS011;23062;13.952;100.608;2023-08-20T16:22:12;6.00;;;4.00;;
37169;SDS011;23062;13.952;100.608;2023-08-20T16:26:42;4.00;;;3.00;;
37169;SDS011;23062;13.952;100.608;2023-08-20T16:31:13;6.00;;;4.00;;
37169;SDS011;23062;13.952;100.608;2023-08-20T16:35:47;4.00;;;2.00;;
37169;SDS011;23062;13.952;100.608;2023-08-20T16:40:22;4.00;;;3.00;;
37169;SDS011;23062;13.952;100.608;2023-08-20T16:44:51;5.00;;;3.00;;
37169;SDS011;23062;13.952;100.608;2023-08-20T16:49:18;5.00;;;3.00;;
37169;SDS011;23062;13.952;100.608;2023-08-20T16:53:46;4.00;;;3.00;;
37169;SDS011;23062;13.952;100.608;2023-08-20T16:58:13;4.00;;;2.00;;
37169;SDS011;23062;13.952;100.608;2023-08-20T17:02:52;4.00;;;2.00;;
37169;SDS011;23062;13.952;100.608;2023-08-20T17:07:27;5.00;;;3.00;;
37169;SDS011;23062;13.952;100.608;2023-08-20T17:11:59;5.00;;;3.00;;
37169;SDS011;23062;13.952;100.608;2023-08-20T17:16:43;4.00;;;2.00;;
37169;SDS011;23062;13.952;100.608;2023-08-20T17:21:10;3.00;;;2.00;;
37169;SDS011;23062;13.952;100.608;2023-08-20T17:25:44;4.00;;;2.00;;
37169;SDS011;23062;13.952;100.608;2023-08-20T17:30:13;3.00;;;2.00;;
37169;SDS011;23062;13.952;100.608;2023-08-20T17:34:40;4.00;;;2.00;;
37169;SDS011;23062;13.952;100.608;2023-08-20T17:39:18;4.00;;;3.00;;
37169;SDS011;23062;13.952;100.608;2023-08-20T17:43:48;5.00;;;3.00;;
37169;SDS011;23062;13.952;100.608;2023-08-20T17:48:15;4.00;;;3.00;;
37169;SDS011;23062;13.952;100.608;2023-08-20T17:52:48;4.00;;;2.00;;
37169;SDS011;23062;13.952;100.608;2023-08-20T17:57:21;4.00;;;3.00;;
37169;SDS011;23062;13.952;100.608;2023-08-20T18:01:48;4.00;;;2.00;;
37169;SDS011;23062;13.952;100.608;2023-08-20T18:06:26;5.00;;;3.00;;
37169;SDS011;23062;13.952;100.608;2023-08-20T18:10:53;4.00;;;2.00;;
37169;SDS011;23062;13.952;100.608;2023-08-20T18:15:20;6.00;;;4.00;;
37169;SDS011;23062;13.952;100.608;2023-08-20T18:19:50;3.00;;;2.00;;
37169;SDS011;23062;13.952;100.608;2023-08-20T18:24:24;5.00;;;3.00;;
37169;SDS011;23062;13.952;100.608;2023-08-20T18:28:51;5.00;;;3.00;;
37169;SDS011;23062;13.952;100.608;2023-08-20T18:33:25;7.00;;;5.00;;
37169;SDS011;23062;13.952;100.608;2023-08-20T18:37:59;6.00;;;4.00;;
37169;SDS011;23062;13.952;100.608;2023-08-20T18:42:35;4.00;;;3.00;;
37169;SDS011;23062;13.952;100.608;2023-08-20T18:47:07;13.00;;;9.33;;
37169;SDS011;23062;13.952;100.608;2023-08-20T18:51:35;4.00;;;3.00;;
37169;SDS011;23062;13.952;100.608;2023-08-20T18:56:04;6.00;;;4.00;;
37169;SDS011;23062;13.952;100.608;2023-08-20T19:00:39;5.00;;;3.00;;
37169;SDS011;23062;13.952;100.608;2023-08-20T19:05:05;4.00;;;2.00;;
37169;SDS011;23062;13.952;100.608;2023-08-20T19:09:32;5.00;;;3.00;;
37169;SDS011;23062;13.952;100.608;2023-08-20T19:13:58;6.00;;;4.00;;
37169;SDS011;23062;13.952;100.608;2023-08-20T19:18:27;6.00;;;4.00;;
37169;SDS011;23062;13.952;100.608;2023-08-20T19:23:01;4.00;;;3.00;;
37169;SDS011;23062;13.952;100.608;2023-08-20T19:27:37;7.00;;;4.00;;
37169;SDS011;23062;13.952;100.608;2023-08-20T19:32:12;5.00;;;3.00;;
37169;SDS011;23062;13.952;100.608;2023-08-20T19:36:40;7.00;;;5.00;;
37169;SDS011;23062;13.952;100.608;2023-08-20T19:41:14;6.00;;;4.00;;
37169;SDS011;23062;13.952;100.608;2023-08-20T19:45:42;7.00;;;5.00;;
37169;SDS011;23062;13.952;100.608;2023-08-20T19:50:11;7.00;;;5.00;;
37169;SDS011;23062;13.952;100.608;2023-08-20T19:54:41;7.00;;;4.00;;
37169;SDS011;23062;13.952;100.608;2023-08-20T19:59:07;6.00;;;4.00;;
37169;SDS011;23062;13.952;100.608;2023-08-20T20:03:34;7.00;;;5.00;;
37169;SDS011;23062;13.952;100.608;2023-08-20T20:08:05;10.00;;;7.00;;
37169;SDS011;23062;13.952;100.608;2023-08-20T20:12:36;8.00;;;6.00;;
37169;SDS011;23062;13.952;100.608;2023-08-20T20:17:08;8.00;;;6.00;;
37169;SDS011;23062;13.952;100.608;2023-08-20T20:21:36;10.00;;;7.00;;
37169;SDS011;23062;13.952;100.608;2023-08-20T20:26:09;11.00;;;8.00;;
37169;SDS011;23062;13.952;100.608;2023-08-20T20:30:45;8.00;;;6.00;;
37169;SDS011;23062;13.952;100.608;2023-08-20T20:35:14;9.00;;;6.00;;
37169;SDS011;23062;13.952;100.608;2023-08-20T20:39:41;10.00;;;7.00;;
37169;SDS011;23062;13.952;100.608;2023-08-20T20:44:15;10.00;;;7.00;;
37169;SDS011;23062;13.952;100.608;2023-08-20T20:48:42;9.00;;;6.00;;
37169;SDS011;23062;13.952;100.608;2023-08-20T20:53:16;10.00;;;7.00;;
37169;SDS011;23062;13.952;100.608;2023-08-20T20:57:50;10.00;;;7.00;;
37169;SDS011;23062;13.952;100.608;2023-08-20T21:02:18;10.00;;;7.00;;
37169;SDS011;23062;13.952;100.608;2023-08-20T21:06:46;11.00;;;8.00;;
37169;SDS011;23062;13.952;100.608;2023-08-20T21:11:14;10.00;;;7.00;;
37169;SDS011;23062;13.952;100.608;2023-08-20T21:15:42;14.00;;;10.00;;
37169;SDS011;23062;13.952;100.608;2023-08-20T21:20:10;15.00;;;11.00;;
37169;SDS011;23062;13.952;100.608;2023-08-20T21:24:38;15.00;;;11.00;;
37169;SDS011;23062;13.952;100.608;2023-08-20T21:29:08;17.00;;;13.00;;
37169;SDS011;23062;13.952;100.608;2023-08-20T21:33:34;16.00;;;11.00;;
37169;SDS011;23062;13.952;100.608;2023-08-20T21:38:02;15.00;;;11.00;;
37169;SDS011;23062;13.952;100.608;2023-08-20T21:42:49;13.00;;;10.00;;
37169;SDS011;23062;13.952;100.608;2023-08-20T21:47:22;14.00;;;10.00;;
37169;SDS011;23062;13.952;100.608;2023-08-20T21:51:50;16.00;;;12.00;;
37169;SDS011;23062;13.952;100.608;2023-08-20T21:56:20;15.00;;;11.00;;
37169;SDS011;23062;13.952;100.608;2023-08-20T22:00:49;16.00;;;12.00;;
37169;SDS011;23062;13.952;100.608;2023-08-20T22:05:23;13.00;;;10.00;;
37169;SDS011;23062;13.952;100.608;2023-08-20T22:09:50;17.00;;;12.00;;
37169;SDS011;23062;13.952;100.608;2023-08-20T22:14:19;15.00;;;10.00;;
37169;SDS011;23062;13.952;100.608;2023-08-20T22:18:45;15.00;;;11.00;;
37169;SDS011;23062;13.952;100.608;2023-08-20T22:23:12;14.00;;;10.00;;
37169;SDS011;23062;13.952;100.608;2023-08-20T22:27:47;15.00;;;11.00;;
37169;SDS011;23062;13.952;100.608;2023-08-20T22:32:17;12.00;;;9.00;;
37169;SDS011;23062;13.952;100.608;2023-08-20T22:36:56;14.00;;;10.00;;
37169;SDS011;23062;13.952;100.608;2023-08-20T22:41:23;12.00;;;9.00;;
37169;SDS011;23062;13.952;100.608;2023-08-20T22:45:53;13.00;;;10.00;;
37169;SDS011;23062;13.952;100.608;2023-08-20T22:50:28;12.00;;;9.00;;
37169;SDS011;23062;13.952;100.608;2023-08-20T22:54:57;12.00;;;8.00;;
37169;SDS011;23062;13.952;100.608;2023-08-20T22:59:23;14.00;;;10.00;;
37169;SDS011;23062;13.952;100.608;2023-08-20T23:03:51;10.00;;;7.00;;
37169;SDS011;23062;13.952;100.608;2023-08-20T23:08:19;10.00;;;8.00;;
37169;SDS011;23062;13.952;100.608;2023-08-20T23:12:54;12.00;;;8.00;;
37169;SDS011;23062;13.952;100.608;2023-08-20T23:17:22;10.00;;;7.00;;
37169;SDS011;23062;13.952;100.608;2023-08-20T23:21:53;9.00;;;6.00;;
37169;SDS011;23062;13.952;100.608;2023-08-20T23:26:28;8.00;;;6.00;;
37169;SDS011;23062;13.952;100.608;2023-08-20T23:30:55;8.00;;;6.00;;
37169;SDS011;23062;13.952;100.608;2023-08-20T23:35:21;10.00;;;7.00;;
37169;SDS011;23062;13.952;100.608;2023-08-20T23:39:52;7.00;;;5.00;;
37169;SDS011;23062;13.952;100.608;2023-08-20T23:44:24;9.00;;;6.00;;
37169;SDS011;23062;13.952;100.608;2023-08-20T23:49:00;9.00;;;7.00;;
37169;SDS011;23062;13.952;100.608;2023-08-20T23:53:34;8.00;;;6.00;;
37169;SDS011;23062;13.952;100.608;2023-08-20T23:58:03;10.00;;;7.00;;
